sensor_id;sensor_type;location;lat;lon;timestamp;pressure;altitude;pressure_sealevel;temperature;humidity
54270;BME280;40181;51.560;13.000;2023-10-19T00:02:48;99456.88;;;7.87;81.34
54270;BME280;40181;51.560;13.000;2023-10-19T00:05:21;99443.81;;;7.95;81.23
54270;BME280;40181;51.560;13.000;2023-10-19T00:07:51;99445.53;;;7.87;81.47
54270;BME280;40181;51.560;13.000;2023-10-19T00:10:22;99442.09;;;7.94;81.36
54270;BME280;40181;51.560;13.000;2023-10-19T00:12:58;99442.09;;;7.94;81.02
54270;BME280;40181;51.560;13.000;2023-10-19T00:15:29;99440.31;;;7.88;81.00
54270;BME280;40181;51.560;13.000;2023-10-19T00:18:03;99426.50;;;8.13;80.54
54270;BME280;40181;51.560;13.000;2023-10-19T00:20:46;99420.34;;;8.05;80.39
54270;BME280;40181;51.560;13.000;2023-10-19T00:23:25;99421.22;;;8.02;80.42
54270;BME280;40181;51.560;13.000;2023-10-19T00:25:58;99416.81;;;7.98;80.47
54270;BME280;40181;51.560;13.000;2023-10-19T00:28:34;99419.44;;;8.01;80.17
54270;BME280;40181;51.560;13.000;2023-10-19T00:31:02;99428.16;;;8.00;80.04
54270;BME280;40181;51.560;13.000;2023-10-19T00:33:36;99410.72;;;7.93;80.44
54270;BME280;40181;51.560;13.000;2023-10-19T00:36:06;99397.50;;;7.71;81.19
54270;BME280;40181;51.560;13.000;2023-10-19T00:38:39;99409.69;;;7.66;81.37
54270;BME280;40181;51.560;13.000;2023-10-19T00:41:17;99389.69;;;7.80;81.21
54270;BME280;40181;51.560;13.000;2023-10-19T00:43:54;99377.47;;;7.71;81.45
54270;BME280;40181;51.560;13.000;2023-10-19T00:46:29;99385.19;;;7.54;82.06
54270;BME280;40181;51.560;13.000;2023-10-19T00:49:07;99361.72;;;7.60;81.98
54270;BME280;40181;51.560;13.000;2023-10-19T00:51:42;99379.16;;;7.63;81.81
54270;BME280;40181;51.560;13.000;2023-10-19T00:54:22;99367.88;;;7.70;81.51
54270;BME280;40181;51.560;13.000;2023-10-19T00:56:59;99367.94;;;7.83;81.38
54270;BME280;40181;51.560;13.000;2023-10-19T00:59:32;99365.25;;;7.66;81.48
54270;BME280;40181;51.560;13.000;2023-10-19T01:02:08;99356.56;;;7.71;81.00
54270;BME280;40181;51.560;13.000;2023-10-19T01:04:57;99346.09;;;7.74;81.05
54270;BME280;40181;51.560;13.000;2023-10-19T01:07:30;99347.00;;;7.80;80.73
54270;BME280;40181;51.560;13.000;2023-10-19T01:10:04;99359.25;;;7.90;80.21
54270;BME280;40181;51.560;13.000;2023-10-19T01:12:37;99340.88;;;7.78;80.42
54270;BME280;40181;51.560;13.000;2023-10-19T01:15:10;99351.38;;;7.87;80.01
54270;BME280;40181;51.560;13.000;2023-10-19T01:17:43;99339.19;;;7.84;80.23
54270;BME280;40181;51.560;13.000;2023-10-19T01:20:20;99333.94;;;7.83;80.13
54270;BME280;40181;51.560;13.000;2023-10-19T01:23:03;99333.06;;;7.84;80.47
54270;BME280;40181;51.560;13.000;2023-10-19T01:25:47;99332.19;;;7.85;80.16
54270;BME280;40181;51.560;13.000;2023-10-19T01:28:26;99321.66;;;7.69;80.74
54270;BME280;40181;51.560;13.000;2023-10-19T01:31:08;99312.09;;;7.73;80.35
54270;BME280;40181;51.560;13.000;2023-10-19T01:33:40;99313.00;;;7.78;80.54
54270;BME280;40181;51.560;13.000;2023-10-19T01:36:11;99317.34;;;7.74;80.49
54270;BME280;40181;51.560;13.000;2023-10-19T01:38:53;99308.63;;;7.72;80.48
54270;BME280;40181;51.560;13.000;2023-10-19T01:41:27;99314.72;;;7.73;80.84
54270;BME280;40181;51.560;13.000;2023-10-19T01:43:56;99300.78;;;7.75;80.66
54270;BME280;40181;51.560;13.000;2023-10-19T01:46:29;99297.34;;;7.84;80.29
54270;BME280;40181;51.560;13.000;2023-10-19T01:48:59;99295.66;;;8.00;79.72
54270;BME280;40181;51.560;13.000;2023-10-19T01:51:31;99293.88;;;7.88;79.81
54270;BME280;40181;51.560;13.000;2023-10-19T01:54:01;99302.63;;;7.98;79.66
54270;BME280;40181;51.560;13.000;2023-10-19T01:56:31;99300.00;;;7.94;79.96
54270;BME280;40181;51.560;13.000;2023-10-19T01:59:00;99306.97;;;7.96;79.93
54270;BME280;40181;51.560;13.000;2023-10-19T02:01:33;99295.66;;;7.96;80.02
54270;BME280;40181;51.560;13.000;2023-10-19T02:04:05;99294.81;;;8.03;79.97
54270;BME280;40181;51.560;13.000;2023-10-19T02:06:37;99288.69;;;7.98;80.55
54270;BME280;40181;51.560;13.000;2023-10-19T02:09:09;99278.25;;;8.04;80.51
54270;BME280;40181;51.560;13.000;2023-10-19T02:11:49;99277.34;;;7.96;80.75
54270;BME280;40181;51.560;13.000;2023-10-19T02:14:21;99268.63;;;8.05;80.61
54270;BME280;40181;51.560;13.000;2023-10-19T02:16:51;99272.13;;;8.05;80.75
54270;BME280;40181;51.560;13.000;2023-10-19T02:19:22;99256.44;;;8.00;80.42
54270;BME280;40181;51.560;13.000;2023-10-19T02:21:53;99248.56;;;7.99;79.90
54270;BME280;40181;51.560;13.000;2023-10-19T02:24:26;99245.13;;;8.03;80.98
54270;BME280;40181;51.560;13.000;2023-10-19T02:26:54;99235.50;;;7.99;80.82
54270;BME280;40181;51.560;13.000;2023-10-19T02:29:25;99225.03;;;7.88;80.52
54270;BME280;40181;51.560;13.000;2023-10-19T02:31:52;99221.53;;;7.89;80.62
54270;BME280;40181;51.560;13.000;2023-10-19T02:34:23;99230.28;;;7.96;80.58
54270;BME280;40181;51.560;13.000;2023-10-19T02:36:49;99217.19;;;7.94;80.41
54270;BME280;40181;51.560;13.000;2023-10-19T02:39:19;99215.47;;;7.99;80.54
54270;BME280;40181;51.560;13.000;2023-10-19T02:41:48;99210.22;;;7.98;80.76
54270;BME280;40181;51.560;13.000;2023-10-19T02:44:20;99209.38;;;8.17;79.97
54270;BME280;40181;51.560;13.000;2023-10-19T02:46:48;99198.94;;;8.16;80.16
54270;BME280;40181;51.560;13.000;2023-10-19T02:49:23;99195.44;;;8.28;80.13
54270;BME280;40181;51.560;13.000;2023-10-19T02:51:52;99192.81;;;8.19;80.17
54270;BME280;40181;51.560;13.000;2023-10-19T02:54:28;99188.44;;;7.97;81.06
54270;BME280;40181;51.560;13.000;2023-10-19T02:57:00;99191.06;;;8.00;80.15
54270;BME280;40181;51.560;13.000;2023-10-19T02:59:32;99182.34;;;7.98;80.40
54270;BME280;40181;51.560;13.000;2023-10-19T03:02:00;99184.94;;;8.01;80.31
54270;BME280;40181;51.560;13.000;2023-10-19T03:04:32;99189.31;;;8.06;81.28
54270;BME280;40181;51.560;13.000;2023-10-19T03:07:00;99168.38;;;8.01;82.12
54270;BME280;40181;51.560;13.000;2023-10-19T03:09:30;99170.13;;;7.93;81.77
54270;BME280;40181;51.560;13.000;2023-10-19T03:12:05;99158.81;;;8.06;82.54
54270;BME280;40181;51.560;13.000;2023-10-19T03:14:39;99170.13;;;8.10;82.24
54270;BME280;40181;51.560;13.000;2023-10-19T03:17:07;99157.06;;;8.07;82.81
54270;BME280;40181;51.560;13.000;2023-10-19T03:19:36;99158.81;;;8.06;82.79
54270;BME280;40181;51.560;13.000;2023-10-19T03:22:04;99150.97;;;8.20;82.20
54270;BME280;40181;51.560;13.000;2023-10-19T03:24:34;99152.69;;;8.02;82.90
54270;BME280;40181;51.560;13.000;2023-10-19T03:27:04;99152.66;;;7.96;82.59
54270;BME280;40181;51.560;13.000;2023-10-19T03:29:38;99143.97;;;8.05;82.64
54270;BME280;40181;51.560;13.000;2023-10-19T03:32:06;99143.97;;;7.94;83.33
54270;BME280;40181;51.560;13.000;2023-10-19T03:34:35;99140.47;;;8.00;83.53
54270;BME280;40181;51.560;13.000;2023-10-19T03:37:08;99143.94;;;7.77;84.68
54270;BME280;40181;51.560;13.000;2023-10-19T03:39:40;99137.00;;;8.07;84.55
54270;BME280;40181;51.560;13.000;2023-10-19T03:42:14;99135.25;;;8.01;84.11
54270;BME280;40181;51.560;13.000;2023-10-19T03:44:46;99134.41;;;7.99;84.75
54270;BME280;40181;51.560;13.000;2023-10-19T03:47:19;99150.94;;;8.01;85.31
54270;BME280;40181;51.560;13.000;2023-10-19T03:49:51;99137.00;;;8.10;86.18
54270;BME280;40181;51.560;13.000;2023-10-19T03:52:21;99142.22;;;8.10;85.74
54270;BME280;40181;51.560;13.000;2023-10-19T03:54:55;99141.34;;;8.13;86.32
54270;BME280;40181;51.560;13.000;2023-10-19T03:57:27;99130.03;;;7.98;87.41
54270;BME280;40181;51.560;13.000;2023-10-19T04:00:00;99135.25;;;8.06;87.29
54270;BME280;40181;51.560;13.000;2023-10-19T04:02:40;99128.28;;;8.17;87.61
54270;BME280;40181;51.560;13.000;2023-10-19T04:05:11;99120.44;;;8.19;88.59
54270;BME280;40181;51.560;13.000;2023-10-19T04:07:45;99115.22;;;8.21;88.67
54270;BME280;40181;51.560;13.000;2023-10-19T04:10:15;99113.47;;;7.99;88.93
54270;BME280;40181;51.560;13.000;2023-10-19T04:13:00;99097.78;;;8.13;89.44
54270;BME280;40181;51.560;13.000;2023-10-19T04:15:29;99089.94;;;8.09;90.41
54270;BME280;40181;51.560;13.000;2023-10-19T04:17:59;99091.69;;;8.00;90.73
54270;BME280;40181;51.560;13.000;2023-10-19T04:20:34;99087.28;;;8.10;90.81
54270;BME280;40181;51.560;13.000;2023-10-19T04:23:19;99081.22;;;8.14;91.60
54270;BME280;40181;51.560;13.000;2023-10-19T04:25:52;99082.97;;;8.03;91.68
54270;BME280;40181;51.560;13.000;2023-10-19T04:28:26;99082.03;;;7.60;93.35
54270;BME280;40181;51.560;13.000;2023-10-19T04:31:03;99085.56;;;7.81;93.35
54270;BME280;40181;51.560;13.000;2023-10-19T04:33:39;99082.06;;;7.88;93.32
54270;BME280;40181;51.560;13.000;2023-10-19T04:36:12;99077.72;;;7.83;93.66
54270;BME280;40181;51.560;13.000;2023-10-19T04:38:45;99072.50;;;7.75;94.41
54270;BME280;40181;51.560;13.000;2023-10-19T04:41:14;99067.25;;;7.70;94.96
54270;BME280;40181;51.560;13.000;2023-10-19T04:43:46;99071.63;;;7.84;94.76
54270;BME280;40181;51.560;13.000;2023-10-19T04:46:18;99067.28;;;7.80;96.01
54270;BME280;40181;51.560;13.000;2023-10-19T04:48:47;99067.25;;;7.83;95.61
54270;BME280;40181;51.560;13.000;2023-10-19T04:51:17;99067.28;;;7.80;96.33
54270;BME280;40181;51.560;13.000;2023-10-19T04:53:46;99062.91;;;7.88;96.07
54270;BME280;40181;51.560;13.000;2023-10-19T04:56:16;99068.97;;;7.78;96.26
54270;BME280;40181;51.560;13.000;2023-10-19T04:58:47;99065.50;;;7.74;96.66
54270;BME280;40181;51.560;13.000;2023-10-19T05:01:18;99058.53;;;7.79;96.81
54270;BME280;40181;51.560;13.000;2023-10-19T05:03:49;99042.84;;;7.84;97.70
54270;BME280;40181;51.560;13.000;2023-10-19T05:06:18;99039.38;;;7.85;98.32
54270;BME280;40181;51.560;13.000;2023-10-19T05:08:47;99064.66;;;7.70;98.28
54270;BME280;40181;51.560;13.000;2023-10-19T05:11:17;99059.41;;;7.61;97.78
54270;BME280;40181;51.560;13.000;2023-10-19T05:13:49;99044.59;;;7.68;99.28
54270;BME280;40181;51.560;13.000;2023-10-19T05:16:18;99048.94;;;7.69;98.98
54270;BME280;40181;51.560;13.000;2023-10-19T05:18:48;99032.38;;;7.60;99.02
54270;BME280;40181;51.560;13.000;2023-10-19T05:21:17;99023.69;;;7.71;99.08
54270;BME280;40181;51.560;13.000;2023-10-19T05:23:47;99037.63;;;7.56;99.90
54270;BME280;40181;51.560;13.000;2023-10-19T05:26:16;99028.88;;;7.47;100.00
54270;BME280;40181;51.560;13.000;2023-10-19T05:28:45;99032.38;;;7.48;100.00
54270;BME280;40181;51.560;13.000;2023-10-19T05:31:17;99027.16;;;7.39;100.00
54270;BME280;40181;51.560;13.000;2023-10-19T05:33:46;99011.50;;;7.57;100.00
54270;BME280;40181;51.560;13.000;2023-10-19T05:36:16;99028.91;;;7.58;100.00
54270;BME280;40181;51.560;13.000;2023-10-19T05:38:45;99032.41;;;7.53;100.00
54270;BME280;40181;51.560;13.000;2023-10-19T05:41:16;99034.97;;;7.45;100.00
54270;BME280;40181;51.560;13.000;2023-10-19T05:43:49;99030.66;;;7.59;100.00
54270;BME280;40181;51.560;13.000;2023-10-19T05:46:18;99026.28;;;7.52;100.00
54270;BME280;40181;51.560;13.000;2023-10-19T05:48:50;99028.88;;;7.38;100.00
54270;BME280;40181;51.560;13.000;2023-10-19T05:51:21;99027.13;;;7.32;100.00
54270;BME280;40181;51.560;13.000;2023-10-19T05:53:51;99040.22;;;7.39;100.00
54270;BME280;40181;51.560;13.000;2023-10-19T05:56:27;99040.19;;;7.37;100.00
54270;BME280;40181;51.560;13.000;2023-10-19T05:58:58;99038.44;;;7.30;100.00
54270;BME280;40181;51.560;13.000;2023-10-19T06:01:29;99034.06;;;7.27;100.00
54270;BME280;40181;51.560;13.000;2023-10-19T06:03:59;99035.84;;;7.44;100.00
54270;BME280;40181;51.560;13.000;2023-10-19T06:06:28;99034.94;;;7.26;100.00
54270;BME280;40181;51.560;13.000;2023-10-19T06:08:57;99036.66;;;7.18;100.00
54270;BME280;40181;51.560;13.000;2023-10-19T06:11:28;99040.06;;;6.92;100.00
54270;BME280;40181;51.560;13.000;2023-10-19T06:14:01;99034.91;;;7.20;100.00
54270;BME280;40181;51.560;13.000;2023-10-19T06:16:32;99033.16;;;7.11;100.00
54270;BME280;40181;51.560;13.000;2023-10-19T06:19:02;99027.97;;;7.24;100.00
54270;BME280;40181;51.560;13.000;2023-10-19T06:21:31;99025.34;;;7.11;100.00
54270;BME280;40181;51.560;13.000;2023-10-19T06:24:01;99016.59;;;6.98;100.00
54270;BME280;40181;51.560;13.000;2023-10-19T06:26:30;99026.16;;;6.98;100.00
54270;BME280;40181;51.560;13.000;2023-10-19T06:29:03;99025.31;;;7.06;100.00
54270;BME280;40181;51.560;13.000;2023-10-19T06:31:32;99027.00;;;6.92;100.00
54270;BME280;40181;51.560;13.000;2023-10-19T06:34:02;99031.34;;;6.93;100.00
54270;BME280;40181;51.560;13.000;2023-10-19T06:36:32;99028.84;;;7.23;100.00
54270;BME280;40181;51.560;13.000;2023-10-19T06:39:03;99020.97;;;7.13;100.00
54270;BME280;40181;51.560;13.000;2023-10-19T06:41:33;99022.69;;;7.00;100.00
54270;BME280;40181;51.560;13.000;2023-10-19T06:44:05;99016.59;;;7.03;100.00
54270;BME280;40181;51.560;13.000;2023-10-19T06:46:36;99020.94;;;6.95;100.00
54270;BME280;40181;51.560;13.000;2023-10-19T06:49:05;99023.56;;;6.99;100.00
54270;BME280;40181;51.560;13.000;2023-10-19T06:51:35;99010.56;;;7.12;100.00
54270;BME280;40181;51.560;13.000;2023-10-19T06:54:04;99006.16;;;7.00;100.00
54270;BME280;40181;51.560;13.000;2023-10-19T06:56:34;99013.16;;;7.10;100.00
54270;BME280;40181;51.560;13.000;2023-10-19T06:59:06;99017.50;;;7.19;100.00
54270;BME280;40181;51.560;13.000;2023-10-19T07:01:37;99005.34;;;7.16;100.00
54270;BME280;40181;51.560;13.000;2023-10-19T07:04:06;99015.81;;;7.26;100.00
54270;BME280;40181;51.560;13.000;2023-10-19T07:06:35;99004.47;;;7.22;100.00
54270;BME280;40181;51.560;13.000;2023-10-19T07:09:05;99003.56;;;7.15;100.00
54270;BME280;40181;51.560;13.000;2023-10-19T07:11:35;99007.97;;;7.24;100.00
54270;BME280;40181;51.560;13.000;2023-10-19T07:14:07;99005.34;;;7.12;100.00
54270;BME280;40181;51.560;13.000;2023-10-19T07:16:39;99012.28;;;7.20;100.00
54270;BME280;40181;51.560;13.000;2023-10-19T07:19:08;99011.44;;;7.40;100.00
54270;BME280;40181;51.560;13.000;2023-10-19T07:21:37;99013.22;;;7.49;100.00
54270;BME280;40181;51.560;13.000;2023-10-19T07:24:09;99005.38;;;7.46;100.00
54270;BME280;40181;51.560;13.000;2023-10-19T07:26:38;99026.25;;;7.37;100.00
54270;BME280;40181;51.560;13.000;2023-10-19T07:29:21;99009.69;;;7.38;100.00
54270;BME280;40181;51.560;13.000;2023-10-19T07:31:50;99010.63;;;7.49;100.00
54270;BME280;40181;51.560;13.000;2023-10-19T07:34:21;99009.72;;;7.39;100.00
54270;BME280;40181;51.560;13.000;2023-10-19T07:36:53;99006.25;;;7.64;100.00
54270;BME280;40181;51.560;13.000;2023-10-19T07:39:24;99010.59;;;7.69;100.00
54270;BME280;40181;51.560;13.000;2023-10-19T07:41:55;99006.25;;;7.73;100.00
54270;BME280;40181;51.560;13.000;2023-10-19T07:44:27;98992.31;;;7.72;100.00
54270;BME280;40181;51.560;13.000;2023-10-19T07:46:57;98993.19;;;7.62;100.00
54270;BME280;40181;51.560;13.000;2023-10-19T07:49:26;98987.97;;;7.67;100.00
54270;BME280;40181;51.560;13.000;2023-10-19T07:51:56;98968.78;;;7.66;100.00
54270;BME280;40181;51.560;13.000;2023-10-19T07:54:25;98972.25;;;7.84;100.00
54270;BME280;40181;51.560;13.000;2023-10-19T07:56:55;98973.16;;;7.84;100.00
54270;BME280;40181;51.560;13.000;2023-10-19T07:59:31;98964.41;;;7.95;100.00
54270;BME280;40181;51.560;13.000;2023-10-19T08:02:00;98973.13;;;7.72;100.00
54270;BME280;40181;51.560;13.000;2023-10-19T08:04:31;98969.66;;;7.78;100.00
54270;BME280;40181;51.560;13.000;2023-10-19T08:07:00;98962.69;;;7.78;100.00
54270;BME280;40181;51.560;13.000;2023-10-19T08:09:29;98973.13;;;7.91;100.00
54270;BME280;40181;51.560;13.000;2023-10-19T08:12:00;98970.50;;;7.86;100.00
54270;BME280;40181;51.560;13.000;2023-10-19T08:14:33;98957.47;;;7.69;100.00
54270;BME280;40181;51.560;13.000;2023-10-19T08:17:02;98967.94;;;7.66;100.00
54270;BME280;40181;51.560;13.000;2023-10-19T08:19:34;98961.81;;;7.85;100.00
54270;BME280;40181;51.560;13.000;2023-10-19T08:22:03;98958.34;;;7.68;100.00
54270;BME280;40181;51.560;13.000;2023-10-19T08:24:32;98961.81;;;7.79;100.00
54270;BME280;40181;51.560;13.000;2023-10-19T08:27:02;98954.84;;;7.75;100.00
54270;BME280;40181;51.560;13.000;2023-10-19T08:29:35;98948.75;;;7.76;100.00
54270;BME280;40181;51.560;13.000;2023-10-19T08:32:04;98953.97;;;7.81;100.00
54270;BME280;40181;51.560;13.000;2023-10-19T08:34:34;98944.41;;;7.80;100.00
54270;BME280;40181;51.560;13.000;2023-10-19T08:37:05;98947.88;;;7.83;100.00
54270;BME280;40181;51.560;13.000;2023-10-19T08:39:34;98950.47;;;7.85;100.00
54270;BME280;40181;51.560;13.000;2023-10-19T08:42:05;98943.53;;;7.81;100.00
54270;BME280;40181;51.560;13.000;2023-10-19T08:44:38;98930.44;;;7.84;100.00
54270;BME280;40181;51.560;13.000;2023-10-19T08:47:07;98935.66;;;7.88;100.00
54270;BME280;40181;51.560;13.000;2023-10-19T08:49:37;98932.16;;;7.94;100.00
54270;BME280;40181;51.560;13.000;2023-10-19T08:52:07;98933.06;;;7.73;100.00
54270;BME280;40181;51.560;13.000;2023-10-19T08:54:37;98927.81;;;7.73;100.00
54270;BME280;40181;51.560;13.000;2023-10-19T08:57:07;98927.84;;;7.76;100.00
54270;BME280;40181;51.560;13.000;2023-10-19T08:59:39;98934.75;;;7.99;100.00
54270;BME280;40181;51.560;13.000;2023-10-19T09:02:09;98947.00;;;7.89;100.00
54270;BME280;40181;51.560;13.000;2023-10-19T09:04:41;98944.34;;;8.00;100.00
54270;BME280;40181;51.560;13.000;2023-10-19T09:07:11;98930.41;;;7.95;100.00
54270;BME280;40181;51.560;13.000;2023-10-19T09:09:40;98918.22;;;7.92;100.00
54270;BME280;40181;51.560;13.000;2023-10-19T09:12:12;98922.56;;;7.93;100.00
54270;BME280;40181;51.560;13.000;2023-10-19T09:14:44;98915.56;;;8.08;100.00
54270;BME280;40181;51.560;13.000;2023-10-19T09:17:15;98931.28;;;7.97;100.00
54270;BME280;40181;51.560;13.000;2023-10-19T09:19:45;98919.06;;;7.99;100.00
54270;BME280;40181;51.560;13.000;2023-10-19T09:22:15;98917.34;;;7.92;100.00
54270;BME280;40181;51.560;13.000;2023-10-19T09:24:48;98931.31;;;7.84;100.00
54270;BME280;40181;51.560;13.000;2023-10-19T09:27:18;98931.31;;;7.84;100.00
54270;BME280;40181;51.560;13.000;2023-10-19T09:29:51;98914.75;;;7.90;100.00
54270;BME280;40181;51.560;13.000;2023-10-19T09:32:21;98906.84;;;8.01;100.00
54270;BME280;40181;51.560;13.000;2023-10-19T09:34:51;98916.44;;;8.11;100.00
54270;BME280;40181;51.560;13.000;2023-10-19T09:37:21;98916.47;;;7.96;100.00
54270;BME280;40181;51.560;13.000;2023-10-19T09:39:51;98917.34;;;7.88;100.00
54270;BME280;40181;51.560;13.000;2023-10-19T09:42:24;98920.81;;;8.03;100.00
54270;BME280;40181;51.560;13.000;2023-10-19T09:44:59;98920.84;;;7.89;100.00
54270;BME280;40181;51.560;13.000;2023-10-19T09:47:34;98905.16;;;7.94;100.00
54270;BME280;40181;51.560;13.000;2023-10-19T09:50:07;98912.94;;;8.12;100.00
54270;BME280;40181;51.560;13.000;2023-10-19T09:52:39;98909.47;;;8.02;100.00
54270;BME280;40181;51.560;13.000;2023-10-19T09:55:12;98906.00;;;7.99;100.00
54270;BME280;40181;51.560;13.000;2023-10-19T09:57:51;98914.69;;;8.06;100.00
54270;BME280;40181;51.560;13.000;2023-10-19T10:00:26;98900.72;;;8.08;100.00
54270;BME280;40181;51.560;13.000;2023-10-19T10:02:57;98899.81;;;8.25;100.00
54270;BME280;40181;51.560;13.000;2023-10-19T10:05:45;98892.94;;;8.02;100.00
54270;BME280;40181;51.560;13.000;2023-10-19T10:08:31;98879.78;;;8.19;100.00
54270;BME280;40181;51.560;13.000;2023-10-19T10:11:17;98868.44;;;8.22;100.00
54270;BME280;40181;51.560;13.000;2023-10-19T10:13:48;98872.88;;;7.99;100.00
54270;BME280;40181;51.560;13.000;2023-10-19T10:16:22;98866.72;;;8.14;100.00
54270;BME280;40181;51.560;13.000;2023-10-19T10:18:55;98852.66;;;8.34;100.00
54270;BME280;40181;51.560;13.000;2023-10-19T10:21:26;98854.41;;;8.35;100.00
54270;BME280;40181;51.560;13.000;2023-10-19T10:23:57;98850.00;;;8.54;100.00
54270;BME280;40181;51.560;13.000;2023-10-19T10:26:29;98835.91;;;8.76;100.00
54270;BME280;40181;51.560;13.000;2023-10-19T10:29:12;98846.47;;;8.60;100.00
54270;BME280;40181;51.560;13.000;2023-10-19T10:31:48;98849.03;;;8.71;100.00
54270;BME280;40181;51.560;13.000;2023-10-19T10:34:42;98847.16;;;8.87;100.00
54270;BME280;40181;51.560;13.000;2023-10-19T10:37:12;98846.31;;;8.83;100.00
54270;BME280;40181;51.560;13.000;2023-10-19T10:39:42;98851.47;;;8.93;100.00
54270;BME280;40181;51.560;13.000;2023-10-19T10:42:12;98840.03;;;9.03;100.00
54270;BME280;40181;51.560;13.000;2023-10-19T10:44:44;98843.56;;;9.01;100.00
54270;BME280;40181;51.560;13.000;2023-10-19T10:47:21;98850.59;;;8.97;100.00
54270;BME280;40181;51.560;13.000;2023-10-19T10:49:52;98852.22;;;9.10;100.00
54270;BME280;40181;51.560;13.000;2023-10-19T10:52:29;98849.59;;;9.12;100.00
54270;BME280;40181;51.560;13.000;2023-10-19T10:55:06;98841.84;;;8.96;100.00
54270;BME280;40181;51.560;13.000;2023-10-19T10:57:37;98851.34;;;9.10;100.00
54270;BME280;40181;51.560;13.000;2023-10-19T11:00:11;98847.69;;;9.28;100.00
54270;BME280;40181;51.560;13.000;2023-10-19T11:02:47;98847.69;;;9.30;100.00
54270;BME280;40181;51.560;13.000;2023-10-19T11:05:29;98841.28;;;9.59;100.00
54270;BME280;40181;51.560;13.000;2023-10-19T11:08:06;98842.09;;;9.68;100.00
54270;BME280;40181;51.560;13.000;2023-10-19T11:10:39;98846.50;;;9.65;100.00
54270;BME280;40181;51.560;13.000;2023-10-19T11:13:12;98832.59;;;9.53;100.00
54270;BME280;40181;51.560;13.000;2023-10-19T11:15:48;98836.84;;;9.65;100.00
54270;BME280;40181;51.560;13.000;2023-10-19T11:18:32;98826.22;;;9.79;100.00
54270;BME280;40181;51.560;13.000;2023-10-19T11:21:07;98833.28;;;9.74;100.00
54270;BME280;40181;51.560;13.000;2023-10-19T11:23:38;98823.56;;;9.81;100.00
54270;BME280;40181;51.560;13.000;2023-10-19T11:26:10;98831.69;;;9.59;100.00
54270;BME280;40181;51.560;13.000;2023-10-19T11:28:40;98833.28;;;9.71;100.00
54270;BME280;40181;51.560;13.000;2023-10-19T11:31:17;98813.88;;;9.89;100.00
54270;BME280;40181;51.560;13.000;2023-10-19T11:33:52;98799.91;;;9.86;100.00
54270;BME280;40181;51.560;13.000;2023-10-19T11:36:24;98789.25;;;10.01;100.00
54270;BME280;40181;51.560;13.000;2023-10-19T11:38:53;98788.41;;;9.98;100.00
54270;BME280;40181;51.560;13.000;2023-10-19T11:41:23;98776.06;;;10.04;100.00
54270;BME280;40181;51.560;13.000;2023-10-19T11:43:52;98785.72;;;10.02;100.00
54270;BME280;40181;51.560;13.000;2023-10-19T11:46:22;98782.03;;;10.19;100.00
54270;BME280;40181;51.560;13.000;2023-10-19T11:48:57;98781.19;;;10.14;100.00
54270;BME280;40181;51.560;13.000;2023-10-19T11:51:28;98797.88;;;10.09;100.00
54270;BME280;40181;51.560;13.000;2023-10-19T11:53:59;98800.28;;;10.27;100.00
54270;BME280;40181;51.560;13.000;2023-10-19T11:56:28;98789.91;;;10.19;100.00
54270;BME280;40181;51.560;13.000;2023-10-19T11:58:57;98790.03;;;10.06;100.00
54270;BME280;40181;51.560;13.000;2023-10-19T12:01:27;98793.56;;;10.05;100.00
54270;BME280;40181;51.560;13.000;2023-10-19T12:03:59;98794.44;;;10.03;100.00
54270;BME280;40181;51.560;13.000;2023-10-19T12:06:28;98792.53;;;10.16;100.00
54270;BME280;40181;51.560;13.000;2023-10-19T12:08:57;98782.88;;;10.21;100.00
54270;BME280;40181;51.560;13.000;2023-10-19T12:11:40;98774.78;;;10.36;100.00
54270;BME280;40181;51.560;13.000;2023-10-19T12:14:09;98781.63;;;10.48;100.00
54270;BME280;40181;51.560;13.000;2023-10-19T12:16:40;98784.47;;;10.31;100.00
54270;BME280;40181;51.560;13.000;2023-10-19T12:19:13;98782.56;;;10.44;100.00
54270;BME280;40181;51.560;13.000;2023-10-19T12:21:44;98791.97;;;10.59;100.00
54270;BME280;40181;51.560;13.000;2023-10-19T12:24:15;98795.41;;;10.64;100.00
54270;BME280;40181;51.560;13.000;2023-10-19T12:26:45;98795.41;;;10.63;100.00
54270;BME280;40181;51.560;13.000;2023-10-19T12:29:16;98802.69;;;10.45;100.00
54270;BME280;40181;51.560;13.000;2023-10-19T12:31:46;98792.88;;;10.57;100.00
54270;BME280;40181;51.560;13.000;2023-10-19T12:34:18;98790.09;;;10.68;100.00
54270;BME280;40181;51.560;13.000;2023-10-19T12:36:48;98792.94;;;10.54;100.00
54270;BME280;40181;51.560;13.000;2023-10-19T12:39:17;98785.06;;;10.52;100.00
54270;BME280;40181;51.560;13.000;2023-10-19T12:41:59;98792.03;;;10.55;100.00
54270;BME280;40181;51.560;13.000;2023-10-19T12:44:29;98778.97;;;10.50;100.00
54270;BME280;40181;51.560;13.000;2023-10-19T12:47:04;98795.69;;;10.44;100.00
54270;BME280;40181;51.560;13.000;2023-10-19T12:49:38;98786.91;;;10.47;100.00
54270;BME280;40181;51.560;13.000;2023-10-19T12:52:10;98790.38;;;10.49;100.00
54270;BME280;40181;51.560;13.000;2023-10-19T12:54:40;98785.88;;;10.56;100.00
54270;BME280;40181;51.560;13.000;2023-10-19T12:57:13;98773.84;;;10.39;100.00
54270;BME280;40181;51.560;13.000;2023-10-19T12:59:44;98774.41;;;10.61;100.00
54270;BME280;40181;51.560;13.000;2023-10-19T13:02:14;98782.47;;;10.50;100.00
54270;BME280;40181;51.560;13.000;2023-10-19T13:04:48;98775.50;;;10.48;100.00
54270;BME280;40181;51.560;13.000;2023-10-19T13:07:17;98751.50;;;10.73;100.00
54270;BME280;40181;51.560;13.000;2023-10-19T13:09:50;98752.13;;;10.87;100.00
54270;BME280;40181;51.560;13.000;2023-10-19T13:12:21;98746.88;;;10.87;100.00
54270;BME280;40181;51.560;13.000;2023-10-19T13:14:50;98737.56;;;10.68;100.00
54270;BME280;40181;51.560;13.000;2023-10-19T13:17:21;98741.94;;;10.69;100.00
54270;BME280;40181;51.560;13.000;2023-10-19T13:19:53;98768.19;;;10.69;100.00